Accueil
METAR-TAF:

Aéroports :

Biarritz, France

Aéroport de Biarritz-Anglet-Bayonne

latitude: 43-28N, longitude: 001-32W, altitude: 75 m

Observation

Le bulletin a été fait il y a 32 minutes, à 00:30 UTC
Vent 3 kt de sud
Température 15°C
Humidité 82%
Pression 1023 hPa
Visibilité 10 km ou plus
Nuages épars à une hauteur de 3100 ft
Nuages épars à une hauteur de 4400 ft
Ciel couvert à une hauteur de 6400 ft

METAR: LFBZ 260030Z AUTO 18003KT 9999 SCT031 SCT044 OVC064 15/12 Q1023 NOSIG

Heure: 03:02 (01:02 UTC)

Prévision

Le bulletin a été fait il y a 2 heures et 2 minutes, à 23:00 UTC
Prévision valable du 26 à 00 UTC au 26 à 24 UTC
Vent 5 kt de nord
Visibilité 10 km ou plus
Nuages fragmentés à une hauteur de 3000 ft
Temporairement
du 26 à 12 UTC au 26 à 20 UTC
Vent 10 kt de nord/nord-ouest avec des rafales jusqu'à 20 kt

TAF: LFBZ 252300Z 2600/2624 01005KT 9999 BKN030 TEMPO 2612/2620 33010G20KT

METAR-TAF

Observations et prévisions météorologiques de plus de 4000 aéroports (messages METAR et TAF).

Les stations disponibles sont représentées par des disques jaunes et rouges sur la carte.

Passer la souris dessus pour voir le nom de la station.

Cliquer dessus pour voir les observations et prévisions météorologiques.

Pour changer de carte: cliquez sur les boutons verts avec une croix noire pour zoomer, sur le bouton vert avec un tiret pour effectuer un zoom arrière, ou sur les flèches vertes pour les cartes adjacentes.


METAR-TAF: